ABR102B EGJJ-EGBB
Flight info
| Callsign | ABR102B |
|---|---|
| Flight time | 0h 50m |
| Altitude | 27000 |
| Route | BENIX G27 AKIKI UM189 EPATI UM184 KOTEM M184 HEMEL |
| Aircraft | B738/M-SDE2E3FGHIRWXY/LB1 |
Departure
| Time | 2026-05-07 15:06 |
|---|---|
| Airport | Jersey Airport (EGJJ) |
Arrival
| Time | 2026-05-07 15:56 |
|---|---|
| Airport | Birmingham Airport (EGBB) |
| Time | Latitude | Longitude | Altitude | Speed | Heading |
|---|---|---|---|---|---|
| 2026-05-07 14:44 | 49.20448 | -2.19166 | 283 ft | 0 kts | 214° |
| 2026-05-07 14:58 | 49.20446 | -2.19169 | 287 ft | 2 kts | 214° |
| 2026-05-07 14:58 | 49.20428 | -2.19187 | 287 ft | 4 kts | 216° |
| 2026-05-07 14:58 | 49.20413 | -2.19237 | 283 ft | 7 kts | 261° |
| 2026-05-07 14:58 | 49.20405 | -2.19322 | 283 ft | 9 kts | 261° |
| 2026-05-07 14:59 | 49.20402 | -2.19424 | 283 ft | 10 kts | 282° |
| 2026-05-07 14:59 | 49.20421 | -2.19539 | 287 ft | 11 kts | 284° |
| 2026-05-07 14:59 | 49.20440 | -2.19647 | 283 ft | 10 kts | 284° |
| 2026-05-07 14:59 | 49.20439 | -2.19765 | 283 ft | 11 kts | 264° |
| 2026-05-07 15:00 | 49.20432 | -2.19872 | 288 ft | 7 kts | 267° |
| 2026-05-07 15:00 | 49.20437 | -2.19898 | 283 ft | 2 kts | 299° |
| 2026-05-07 15:00 | 49.20447 | -2.19911 | 283 ft | 2 kts | 330° |
| 2026-05-07 15:00 | 49.20453 | -2.19914 | 283 ft | 0 kts | 341° |
| 2026-05-07 15:01 | 49.20460 | -2.19917 | 283 ft | 3 kts | 343° |
| 2026-05-07 15:01 | 49.20488 | -2.19928 | 283 ft | 6 kts | 339° |
| 2026-05-07 15:01 | 49.20516 | -2.19982 | 283 ft | 8 kts | 292° |
| 2026-05-07 15:02 | 49.20536 | -2.20077 | 287 ft | 11 kts | 287° |
| 2026-05-07 15:02 | 49.20558 | -2.20191 | 283 ft | 11 kts | 287° |
| 2026-05-07 15:02 | 49.20582 | -2.20314 | 283 ft | 11 kts | 286° |
| 2026-05-07 15:02 | 49.20603 | -2.20422 | 283 ft | 10 kts | 287° |
| 2026-05-07 15:03 | 49.20622 | -2.20533 | 285 ft | 12 kts | 281° |
| 2026-05-07 15:03 | 49.20628 | -2.20637 | 283 ft | 7 kts | 272° |
| 2026-05-07 15:03 | 49.20655 | -2.20700 | 283 ft | 8 kts | 339° |
| 2026-05-07 15:03 | 49.20701 | -2.20674 | 284 ft | 6 kts | 57° |
| 2026-05-07 15:04 | 49.20706 | -2.20646 | 282 ft | 0 kts | 81° |
| 2026-05-07 15:05 | 49.20706 | -2.20645 | 288 ft | 1 kts | 81° |
| 2026-05-07 15:05 | 49.20710 | -2.20607 | 285 ft | 10 kts | 81° |
| 2026-05-07 15:05 | 49.20748 | -2.20147 | 282 ft | 91 kts | 82° |
| 2026-05-07 15:05 | 49.20850 | -2.18799 | 603 ft | 144 kts | 86° |
| 2026-05-07 15:06 | 49.20953 | -2.17211 | 1671 ft | 153 kts | 88° |
| 2026-05-07 15:06 | 49.21035 | -2.15533 | 2755 ft | 165 kts | 89° |
| 2026-05-07 15:06 | 49.21123 | -2.13777 | 3890 ft | 166 kts | 89° |
| 2026-05-07 15:06 | 49.21259 | -2.11944 | 4894 ft | 185 kts | 87° |
| 2026-05-07 15:07 | 49.21427 | -2.09883 | 5692 ft | 203 kts | 86° |
| 2026-05-07 15:07 | 49.21636 | -2.07718 | 6492 ft | 214 kts | 84° |
| 2026-05-07 15:07 | 49.21893 | -2.05425 | 7304 ft | 226 kts | 82° |
| 2026-05-07 15:07 | 49.22497 | -2.03002 | 7777 ft | 266 kts | 58° |
| 2026-05-07 15:08 | 49.23747 | -2.00822 | 8698 ft | 273 kts | 47° |
| 2026-05-07 15:08 | 49.25126 | -1.98791 | 9855 ft | 276 kts | 44° |
| 2026-05-07 15:08 | 49.26551 | -1.96813 | 10937 ft | 278 kts | 42° |
| 2026-05-07 15:08 | 49.28003 | -1.94825 | 11968 ft | 283 kts | 43° |
| 2026-05-07 15:09 | 49.29405 | -1.92586 | 12610 ft | 306 kts | 49° |
| 2026-05-07 15:09 | 49.30827 | -1.90056 | 13515 ft | 317 kts | 49° |
| 2026-05-07 15:09 | 49.32263 | -1.87515 | 14590 ft | 322 kts | 49° |
| 2026-05-07 15:09 | 49.33745 | -1.84923 | 15667 ft | 325 kts | 48° |
| 2026-05-07 15:10 | 49.35265 | -1.82310 | 16742 ft | 331 kts | 48° |
| 2026-05-07 15:10 | 49.36814 | -1.79663 | 17797 ft | 336 kts | 48° |
| 2026-05-07 15:10 | 49.38392 | -1.76967 | 18788 ft | 342 kts | 48° |
| 2026-05-07 15:10 | 49.39994 | -1.74230 | 19737 ft | 347 kts | 48° |
| 2026-05-07 15:11 | 49.41617 | -1.71455 | 20699 ft | 352 kts | 48° |
| 2026-05-07 15:11 | 49.43286 | -1.68594 | 21209 ft | 371 kts | 48° |
| 2026-05-07 15:11 | 49.45068 | -1.65536 | 21392 ft | 397 kts | 48° |
| 2026-05-07 15:11 | 49.46931 | -1.62334 | 21722 ft | 415 kts | 49° |
| 2026-05-07 15:12 | 49.48872 | -1.58995 | 22444 ft | 421 kts | 49° |
| 2026-05-07 15:12 | 49.50832 | -1.55622 | 23305 ft | 424 kts | 49° |
| 2026-05-07 15:12 | 49.52805 | -1.52220 | 24014 ft | 428 kts | 49° |
| 2026-05-07 15:12 | 49.54798 | -1.48779 | 24633 ft | 433 kts | 48° |
| 2026-05-07 15:13 | 49.56850 | -1.45349 | 25257 ft | 437 kts | 47° |
| 2026-05-07 15:13 | 49.58947 | -1.41936 | 25895 ft | 440 kts | 46° |
| 2026-05-07 15:13 | 49.61063 | -1.38500 | 26507 ft | 444 kts | 47° |
| 2026-05-07 15:13 | 49.63190 | -1.35014 | 27002 ft | 448 kts | 47° |
| 2026-05-07 15:14 | 49.65319 | -1.31507 | 27020 ft | 459 kts | 47° |
| 2026-05-07 15:14 | 49.67512 | -1.27883 | 27037 ft | 465 kts | 47° |
| 2026-05-07 15:14 | 49.69719 | -1.24230 | 27030 ft | 465 kts | 47° |
| 2026-05-07 15:14 | 49.71912 | -1.20598 | 27020 ft | 460 kts | 47° |
| 2026-05-07 15:15 | 49.74089 | -1.16988 | 27027 ft | 458 kts | 47° |
| 2026-05-07 15:15 | 49.76266 | -1.13397 | 27032 ft | 457 kts | 45° |
| 2026-05-07 15:15 | 49.78743 | -1.10340 | 27038 ft | 457 kts | 30° |
| 2026-05-07 15:15 | 49.81614 | -1.08261 | 27050 ft | 456 kts | 18° |
| 2026-05-07 15:16 | 49.84659 | -1.07237 | 27050 ft | 455 kts | 4° |
| 2026-05-07 15:16 | 49.87811 | -1.06859 | 27054 ft | 455 kts | 2° |
| 2026-05-07 15:16 | 49.90977 | -1.06539 | 27049 ft | 456 kts | 2° |
| 2026-05-07 15:16 | 49.94145 | -1.06183 | 27049 ft | 457 kts | 3° |
| 2026-05-07 15:17 | 49.97314 | -1.05770 | 27048 ft | 457 kts | 3° |
| 2026-05-07 15:17 | 50.00477 | -1.05331 | 27046 ft | 455 kts | 4° |
| 2026-05-07 15:17 | 50.03632 | -1.04886 | 27052 ft | 455 kts | 4° |
| 2026-05-07 15:17 | 50.06787 | -1.04444 | 27053 ft | 456 kts | 4° |
| 2026-05-07 15:18 | 50.09910 | -1.04009 | 27053 ft | 457 kts | 4° |
| 2026-05-07 15:18 | 50.13075 | -1.03568 | 27052 ft | 457 kts | 4° |
| 2026-05-07 15:18 | 50.16239 | -1.03127 | 27058 ft | 457 kts | 4° |
| 2026-05-07 15:18 | 50.19404 | -1.02686 | 27056 ft | 457 kts | 3° |
| 2026-05-07 15:19 | 50.22570 | -1.02243 | 27057 ft | 456 kts | 3° |
| 2026-05-07 15:19 | 50.25730 | -1.01801 | 27058 ft | 456 kts | 3° |
| 2026-05-07 15:19 | 50.28892 | -1.01358 | 27060 ft | 456 kts | 3° |
| 2026-05-07 15:19 | 50.32047 | -1.00915 | 27060 ft | 455 kts | 3° |
| 2026-05-07 15:20 | 50.35204 | -1.00472 | 27058 ft | 455 kts | 3° |
| 2026-05-07 15:20 | 50.38356 | -1.00029 | 27062 ft | 455 kts | 3° |
| 2026-05-07 15:20 | 50.41463 | -0.99592 | 27061 ft | 454 kts | 3° |
| 2026-05-07 15:20 | 50.44611 | -0.99149 | 27062 ft | 454 kts | 3° |
| 2026-05-07 15:21 | 50.47760 | -0.98705 | 27061 ft | 454 kts | 3° |
| 2026-05-07 15:21 | 50.50907 | -0.98260 | 27060 ft | 454 kts | 3° |
| 2026-05-07 15:21 | 50.54050 | -0.97816 | 27059 ft | 454 kts | 3° |
| 2026-05-07 15:21 | 50.57194 | -0.97371 | 27060 ft | 454 kts | 3° |
| 2026-05-07 15:22 | 50.60341 | -0.96924 | 27062 ft | 454 kts | 3° |
| 2026-05-07 15:22 | 50.63445 | -0.96484 | 27061 ft | 454 kts | 3° |
| 2026-05-07 15:22 | 50.66591 | -0.96036 | 27061 ft | 454 kts | 3° |
| 2026-05-07 15:22 | 50.69734 | -0.95589 | 27060 ft | 454 kts | 3° |
| 2026-05-07 15:23 | 50.72876 | -0.95141 | 27056 ft | 454 kts | 3° |
| 2026-05-07 15:23 | 50.76019 | -0.94692 | 27055 ft | 453 kts | 3° |
| 2026-05-07 15:23 | 50.79160 | -0.94242 | 27061 ft | 453 kts | 3° |
| 2026-05-07 15:23 | 50.82296 | -0.93633 | 27053 ft | 455 kts | 8° |
| 2026-05-07 15:24 | 50.85355 | -0.92338 | 27059 ft | 456 kts | 16° |
| 2026-05-07 15:24 | 50.88373 | -0.90773 | 27059 ft | 456 kts | 17° |
| 2026-05-07 15:24 | 50.91313 | -0.89193 | 27052 ft | 457 kts | 17° |
| 2026-05-07 15:24 | 50.94318 | -0.87572 | 27054 ft | 457 kts | 17° |
| 2026-05-07 15:25 | 50.97328 | -0.85963 | 27049 ft | 456 kts | 17° |
| 2026-05-07 15:25 | 51.00342 | -0.84369 | 27051 ft | 456 kts | 16° |
| 2026-05-07 15:25 | 51.03354 | -0.82790 | 27049 ft | 456 kts | 16° |
| 2026-05-07 15:25 | 51.06368 | -0.81217 | 27050 ft | 456 kts | 16° |
| 2026-05-07 15:26 | 51.09381 | -0.79648 | 27052 ft | 456 kts | 16° |
| 2026-05-07 15:26 | 51.12397 | -0.78077 | 27051 ft | 456 kts | 16° |
| 2026-05-07 15:26 | 51.15411 | -0.76505 | 27045 ft | 456 kts | 16° |
| 2026-05-07 15:26 | 51.18383 | -0.74952 | 27050 ft | 456 kts | 16° |
| 2026-05-07 15:27 | 51.21398 | -0.73374 | 27052 ft | 456 kts | 16° |
| 2026-05-07 15:27 | 51.24408 | -0.71796 | 27048 ft | 456 kts | 16° |
| 2026-05-07 15:27 | 51.27417 | -0.70216 | 27051 ft | 456 kts | 16° |
| 2026-05-07 15:27 | 51.30431 | -0.68630 | 27043 ft | 456 kts | 16° |
| 2026-05-07 15:28 | 51.33442 | -0.67044 | 27048 ft | 456 kts | 16° |
| 2026-05-07 15:28 | 51.36451 | -0.65458 | 27051 ft | 456 kts | 16° |
| 2026-05-07 15:28 | 51.39458 | -0.63869 | 27044 ft | 456 kts | 16° |
| 2026-05-07 15:28 | 51.42432 | -0.62296 | 27048 ft | 455 kts | 17° |
| 2026-05-07 15:29 | 51.45437 | -0.60705 | 27055 ft | 455 kts | 17° |
| 2026-05-07 15:29 | 51.48445 | -0.59110 | 27043 ft | 455 kts | 17° |
| 2026-05-07 15:29 | 51.51452 | -0.57513 | 27050 ft | 455 kts | 17° |
| 2026-05-07 15:29 | 51.54460 | -0.55913 | 27036 ft | 455 kts | 17° |
| 2026-05-07 15:30 | 51.57467 | -0.54312 | 27050 ft | 455 kts | 17° |
| 2026-05-07 15:30 | 51.60473 | -0.52708 | 27055 ft | 455 kts | 17° |
| 2026-05-07 15:30 | 51.63478 | -0.51103 | 27042 ft | 453 kts | 17° |
| 2026-05-07 15:30 | 51.66417 | -0.49530 | 26709 ft | 438 kts | 17° |
| 2026-05-07 15:31 | 51.69253 | -0.48010 | 25940 ft | 434 kts | 17° |
| 2026-05-07 15:31 | 51.72120 | -0.46475 | 24882 ft | 436 kts | 17° |
| 2026-05-07 15:31 | 51.75003 | -0.44928 | 23948 ft | 436 kts | 17° |
| 2026-05-07 15:31 | 51.77892 | -0.43570 | 23041 ft | 429 kts | 7° |
| 2026-05-07 15:32 | 51.80835 | -0.43558 | 22210 ft | 419 kts | 349° |
| 2026-05-07 15:32 | 51.83600 | -0.44818 | 21436 ft | 409 kts | 334° |
| 2026-05-07 15:32 | 51.86064 | -0.47039 | 20615 ft | 403 kts | 326° |
| 2026-05-07 15:32 | 51.88425 | -0.49451 | 19783 ft | 400 kts | 326° |
| 2026-05-07 15:33 | 51.90775 | -0.51834 | 18986 ft | 397 kts | 327° |
| 2026-05-07 15:33 | 51.93091 | -0.54126 | 18220 ft | 394 kts | 327° |
| 2026-05-07 15:33 | 51.95426 | -0.56410 | 17376 ft | 390 kts | 327° |
| 2026-05-07 15:33 | 51.97733 | -0.58660 | 16715 ft | 384 kts | 327° |
| 2026-05-07 15:34 | 52.00011 | -0.60883 | 16096 ft | 380 kts | 327° |
| 2026-05-07 15:34 | 52.02271 | -0.63093 | 15481 ft | 378 kts | 328° |
| 2026-05-07 15:34 | 52.04515 | -0.65292 | 14891 ft | 375 kts | 328° |
| 2026-05-07 15:34 | 52.06740 | -0.67476 | 14330 ft | 374 kts | 328° |
| 2026-05-07 15:35 | 52.08969 | -0.69667 | 13799 ft | 376 kts | 328° |
| 2026-05-07 15:35 | 52.11177 | -0.71840 | 13214 ft | 374 kts | 328° |
| 2026-05-07 15:35 | 52.13392 | -0.74022 | 12626 ft | 370 kts | 328° |
| 2026-05-07 15:35 | 52.15581 | -0.76181 | 12057 ft | 366 kts | 328° |
| 2026-05-07 15:36 | 52.17749 | -0.78321 | 11501 ft | 364 kts | 328° |
| 2026-05-07 15:36 | 52.19906 | -0.80453 | 10945 ft | 361 kts | 328° |
| 2026-05-07 15:36 | 52.22040 | -0.82564 | 10544 ft | 355 kts | 327° |
| 2026-05-07 15:36 | 52.23938 | -0.85060 | 10322 ft | 352 kts | 308° |
| 2026-05-07 15:37 | 52.25182 | -0.88467 | 10138 ft | 351 kts | 288° |
| 2026-05-07 15:37 | 52.25813 | -0.92248 | 9966 ft | 349 kts | 281° |
| 2026-05-07 15:37 | 52.26330 | -0.96115 | 9768 ft | 348 kts | 280° |
| 2026-05-07 15:37 | 52.26826 | -0.99981 | 9544 ft | 347 kts | 280° |
| 2026-05-07 15:38 | 52.27323 | -1.03827 | 9341 ft | 346 kts | 280° |
| 2026-05-07 15:38 | 52.27827 | -1.07656 | 9145 ft | 344 kts | 281° |
| 2026-05-07 15:38 | 52.28331 | -1.11415 | 9070 ft | 329 kts | 281° |
| 2026-05-07 15:38 | 52.28807 | -1.14935 | 9058 ft | 307 kts | 281° |
| 2026-05-07 15:39 | 52.29255 | -1.18237 | 9053 ft | 289 kts | 281° |
| 2026-05-07 15:39 | 52.29539 | -1.20335 | 9055 ft | 283 kts | 280° |
| 2026-05-07 15:39 | 52.30098 | -1.24480 | 9076 ft | 282 kts | 281° |
| 2026-05-07 15:39 | 52.30520 | -1.27615 | 9077 ft | 282 kts | 280° |
| 2026-05-07 15:40 | 52.30941 | -1.30750 | 9081 ft | 282 kts | 280° |
| 2026-05-07 15:40 | 52.31362 | -1.33883 | 9078 ft | 282 kts | 280° |
| 2026-05-07 15:40 | 52.31781 | -1.37012 | 9080 ft | 282 kts | 280° |
| 2026-05-07 15:40 | 52.32199 | -1.40149 | 9075 ft | 282 kts | 280° |
| 2026-05-07 15:41 | 52.32476 | -1.42223 | 9072 ft | 282 kts | 280° |
| 2026-05-07 15:41 | 52.32893 | -1.45357 | 9074 ft | 282 kts | 280° |
| 2026-05-07 15:41 | 52.33444 | -1.49508 | 9068 ft | 282 kts | 280° |
| 2026-05-07 15:41 | 52.33860 | -1.52645 | 9071 ft | 282 kts | 280° |
| 2026-05-07 15:42 | 52.34275 | -1.55778 | 9022 ft | 282 kts | 280° |
| 2026-05-07 15:42 | 52.34688 | -1.58905 | 9023 ft | 281 kts | 280° |
| 2026-05-07 15:42 | 52.34960 | -1.60980 | 9024 ft | 281 kts | 280° |
| 2026-05-07 15:42 | 52.35371 | -1.64101 | 9020 ft | 279 kts | 280° |
| 2026-05-07 15:43 | 52.35696 | -1.67204 | 8859 ft | 274 kts | 271° |
| 2026-05-07 15:43 | 52.35670 | -1.70296 | 8443 ft | 272 kts | 265° |
| 2026-05-07 15:43 | 52.35476 | -1.74395 | 7895 ft | 272 kts | 263° |
| 2026-05-07 15:43 | 52.35324 | -1.77461 | 7581 ft | 270 kts | 264° |
| 2026-05-07 15:44 | 52.35182 | -1.80521 | 7281 ft | 269 kts | 264° |
| 2026-05-07 15:44 | 52.35093 | -1.82539 | 7107 ft | 268 kts | 264° |
| 2026-05-07 15:44 | 52.34967 | -1.85569 | 7045 ft | 263 kts | 264° |
| 2026-05-07 15:44 | 52.34849 | -1.88493 | 7017 ft | 251 kts | 264° |
| 2026-05-07 15:45 | 52.34737 | -1.91332 | 7020 ft | 249 kts | 264° |
| 2026-05-07 15:45 | 52.34626 | -1.94149 | 7014 ft | 247 kts | 264° |
| 2026-05-07 15:45 | 52.34482 | -1.97839 | 7020 ft | 245 kts | 264° |
| 2026-05-07 15:45 | 52.34372 | -2.00608 | 7018 ft | 243 kts | 264° |
| 2026-05-07 15:46 | 52.34193 | -2.05146 | 7038 ft | 239 kts | 264° |
| 2026-05-07 15:46 | 52.34408 | -2.07834 | 7015 ft | 243 kts | 291° |
| 2026-05-07 15:46 | 52.35440 | -2.10012 | 7038 ft | 247 kts | 322° |
| 2026-05-07 15:47 | 52.37021 | -2.11054 | 7019 ft | 249 kts | 353° |
| 2026-05-07 15:47 | 52.38734 | -2.10705 | 7049 ft | 251 kts | 17° |
| 2026-05-07 15:47 | 52.40377 | -2.09783 | 6973 ft | 248 kts | 19° |
| 2026-05-07 15:47 | 52.41999 | -2.08820 | 6729 ft | 248 kts | 20° |
| 2026-05-07 15:48 | 52.43625 | -2.07842 | 6414 ft | 250 kts | 20° |
| 2026-05-07 15:48 | 52.45254 | -2.06862 | 6172 ft | 248 kts | 20° |
| 2026-05-07 15:48 | 52.46848 | -2.05905 | 5893 ft | 247 kts | 20° |
| 2026-05-07 15:48 | 52.48462 | -2.04942 | 5635 ft | 246 kts | 20° |
| 2026-05-07 15:49 | 52.50072 | -2.03988 | 5366 ft | 246 kts | 20° |
| 2026-05-07 15:49 | 52.51678 | -2.03042 | 5115 ft | 244 kts | 20° |
| 2026-05-07 15:49 | 52.53273 | -2.02109 | 4853 ft | 243 kts | 20° |
| 2026-05-07 15:49 | 52.54863 | -2.01184 | 4567 ft | 242 kts | 20° |
| 2026-05-07 15:50 | 52.56435 | -2.00274 | 4322 ft | 234 kts | 20° |
| 2026-05-07 15:50 | 52.57949 | -1.99402 | 4018 ft | 228 kts | 20° |
| 2026-05-07 15:50 | 52.59433 | -1.98549 | 3612 ft | 229 kts | 20° |
| 2026-05-07 15:50 | 52.60932 | -1.97693 | 3272 ft | 226 kts | 20° |
| 2026-05-07 15:51 | 52.62352 | -1.96670 | 3034 ft | 218 kts | 39° |
| 2026-05-07 15:51 | 52.63177 | -1.94778 | 2995 ft | 195 kts | 79° |
| 2026-05-07 15:51 | 52.62994 | -1.92763 | 3003 ft | 174 kts | 128° |
| 2026-05-07 15:51 | 52.62031 | -1.91782 | 3020 ft | 162 kts | 166° |
| 2026-05-07 15:52 | 52.60949 | -1.91275 | 3004 ft | 163 kts | 159° |
| 2026-05-07 15:52 | 52.59905 | -1.90485 | 3006 ft | 167 kts | 154° |
| 2026-05-07 15:52 | 52.58870 | -1.89616 | 3007 ft | 167 kts | 153° |
| 2026-05-07 15:52 | 52.57866 | -1.88650 | 3004 ft | 168 kts | 149° |
| 2026-05-07 15:53 | 52.56887 | -1.87602 | 2861 ft | 172 kts | 148° |
| 2026-05-07 15:53 | 52.55901 | -1.86514 | 2641 ft | 169 kts | 147° |
| 2026-05-07 15:53 | 52.54927 | -1.85428 | 2409 ft | 169 kts | 147° |
| 2026-05-07 15:53 | 52.53966 | -1.84358 | 2184 ft | 165 kts | 147° |
| 2026-05-07 15:54 | 52.53018 | -1.83303 | 1952 ft | 164 kts | 147° |
| 2026-05-07 15:54 | 52.52081 | -1.82259 | 1741 ft | 162 kts | 147° |
| 2026-05-07 15:54 | 52.51168 | -1.81243 | 1507 ft | 155 kts | 147° |
| 2026-05-07 15:54 | 52.50292 | -1.80268 | 1305 ft | 150 kts | 147° |
| 2026-05-07 15:55 | 52.49443 | -1.79322 | 1093 ft | 144 kts | 146° |
| 2026-05-07 15:55 | 52.48642 | -1.78431 | 890 ft | 134 kts | 144° |
| 2026-05-07 15:55 | 52.47891 | -1.77611 | 696 ft | 128 kts | 144° |
| 2026-05-07 15:55 | 52.47139 | -1.76751 | 533 ft | 141 kts | 146° |
| 2026-05-07 15:56 | 52.46332 | -1.75853 | 334 ft | 138 kts | 144° |
| 2026-05-07 15:56 | 52.45594 | -1.75028 | 321 ft | 114 kts | 146° |
| 2026-05-07 15:56 | 52.45093 | -1.74475 | 327 ft | 40 kts | 145° |
| 2026-05-07 15:56 | 52.44991 | -1.74373 | 327 ft | 7 kts | 176° |
| 2026-05-07 15:57 | 52.44965 | -1.74437 | 328 ft | 10 kts | 269° |
| 2026-05-07 15:57 | 52.44979 | -1.74577 | 324 ft | 14 kts | 282° |
| 2026-05-07 15:57 | 52.44994 | -1.74695 | 327 ft | 8 kts | 288° |
| 2026-05-07 15:57 | 52.45040 | -1.74767 | 326 ft | 10 kts | 327° |
| 2026-05-07 15:58 | 52.45096 | -1.74829 | 324 ft | 8 kts | 326° |
| 2026-05-07 15:58 | 52.45150 | -1.74889 | 326 ft | 8 kts | 326° |
| 2026-05-07 15:58 | 52.45184 | -1.74947 | 327 ft | 6 kts | 287° |
| 2026-05-07 15:58 | 52.45171 | -1.75017 | 327 ft | 8 kts | 239° |
| 2026-05-07 15:59 | 52.45140 | -1.75095 | 326 ft | 6 kts | 237° |
| 2026-05-07 15:59 | 52.45126 | -1.75132 | 325 ft | 4 kts | 237° |
| 2026-05-07 15:59 | 52.45101 | -1.75158 | 327 ft | 4 kts | 195° |
| 2026-05-07 15:59 | 52.45069 | -1.75165 | 327 ft | 4 kts | 187° |
| 2026-05-07 16:00 | 52.45053 | -1.75168 | 328 ft | 1 kts | 187° |
| 2026-05-07 16:00 | 52.45043 | -1.75170 | 326 ft | 1 kts | 187° |
| 2026-05-07 16:00 | 52.45041 | -1.75171 | 326 ft | 0 kts | 187° |
| 2026-05-07 16:27 | 52.45042 | -1.75171 | 327 ft | 1 kts | 187° |
| 2026-05-07 16:27 | 52.45057 | -1.75167 | 323 ft | 3 kts | 192° |
| 2026-05-07 16:28 | 52.45077 | -1.75159 | 324 ft | 3 kts | 199° |
| 2026-05-07 16:28 | 52.45095 | -1.75147 | 323 ft | 3 kts | 206° |
| 2026-05-07 16:28 | 52.45113 | -1.75131 | 323 ft | 3 kts | 214° |
| 2026-05-07 16:28 | 52.45129 | -1.75111 | 325 ft | 3 kts | 222° |
| 2026-05-07 16:29 | 52.45143 | -1.75088 | 325 ft | 3 kts | 230° |
| 2026-05-07 16:29 | 52.45155 | -1.75062 | 324 ft | 3 kts | 238° |
| 2026-05-07 16:29 | 52.45166 | -1.75033 | 323 ft | 3 kts | 241° |
| 2026-05-07 16:29 | 52.45172 | -1.75014 | 323 ft | 0 kts | 237° |